createdAt,value
2022-11-28T00:00:47.617Z,98.21
2022-11-28T00:01:48.337Z,98.77
2022-11-28T00:02:49.407Z,99.91
2022-11-28T00:03:49.848Z,99.99
2022-11-28T00:04:50.687Z,99.99
2022-11-28T00:05:52.737Z,99.99
2022-11-28T00:06:51.356Z,99.99
2022-11-28T00:07:52.486Z,99.99
2022-11-28T00:08:52.981Z,99.99
2022-11-28T00:09:53.890Z,99.99
2022-11-28T00:10:54.695Z,99.99
2022-11-28T00:11:54.977Z,99.99
2022-11-28T00:12:55.465Z,99.99
2022-11-28T00:13:55.672Z,99.99
2022-11-28T00:14:56.601Z,99.99
2022-11-28T00:15:57.014Z,99.99
2022-11-28T00:16:57.418Z,99.99
2022-11-28T00:17:58.458Z,99.99
2022-11-28T00:18:58.472Z,99.99
2022-11-28T00:19:59.666Z,99.99
2022-11-28T00:20:59.771Z,99.99
2022-11-28T00:22:00.491Z,99.99
2022-11-28T00:23:00.975Z,99.99
2022-11-28T00:24:01.310Z,99.99
2022-11-28T00:25:02.239Z,99.99
2022-11-28T00:26:02.144Z,99.99
2022-11-28T00:27:03.049Z,99.99
2022-11-28T00:28:03.666Z,99.99
2022-11-28T00:29:04.873Z,99.99
2022-11-28T00:30:05.361Z,99.99
2022-11-28T00:31:06.285Z,99.99
2022-11-28T00:32:06.403Z,99.99
2022-11-28T00:33:06.710Z,99.99
2022-11-28T00:34:07.010Z,99.99
2022-11-28T00:35:06.922Z,99.99
2022-11-28T00:36:07.253Z,99.99
2022-11-28T00:37:07.375Z,99.99
2022-11-28T00:38:08.288Z,99.99
2022-11-28T00:39:08.495Z,99.99
2022-11-28T00:40:09.124Z,99.99
2022-11-28T00:41:09.372Z,99.99
2022-11-28T00:42:09.998Z,99.99
2022-11-28T00:43:10.932Z,99.99
2022-11-28T00:44:11.861Z,99.99
2022-11-28T00:45:12.469Z,99.99
2022-11-28T00:46:14.048Z,99.99
2022-11-28T00:47:14.567Z,99.99
2022-11-28T00:48:14.579Z,99.99
2022-11-28T00:49:15.169Z,99.99
2022-11-28T00:50:16.176Z,99.99
2022-11-28T00:51:15.963Z,99.99
2022-11-28T00:52:16.089Z,99.99
2022-11-28T00:53:16.993Z,99.99
2022-11-28T00:54:17.620Z,99.99
2022-11-28T00:55:18.522Z,99.99
2022-11-28T00:56:19.008Z,99.99
2022-11-28T00:57:19.218Z,99.99
2022-11-28T00:58:19.434Z,99.99
2022-11-28T00:59:19.466Z,99.99
2022-11-28T01:00:20.139Z,99.99
2022-11-28T01:01:20.955Z,99.99
2022-11-28T01:02:21.042Z,99.99
2022-11-28T01:03:21.014Z,99.99
2022-11-28T01:04:22.030Z,99.99
2022-11-28T01:05:22.956Z,99.99
2022-11-28T01:06:22.866Z,99.99
2022-11-28T01:07:24.117Z,99.99
2022-11-28T01:08:24.278Z,99.99
2022-11-28T01:09:24.486Z,99.99
2022-11-28T01:10:24.693Z,99.99
2022-11-28T01:11:25.210Z,99.99
2022-11-28T01:12:25.842Z,99.99
2022-11-28T01:13:26.038Z,99.99
2022-11-28T01:14:26.228Z,99.99
2022-11-28T01:15:27.415Z,99.99
2022-11-28T01:16:28.597Z,99.99
2022-11-28T01:17:28.573Z,99.2
2022-11-28T01:18:29.892Z,99.39
2022-11-28T01:19:30.503Z,99.01
2022-11-28T01:20:30.390Z,97.59
2022-11-28T01:21:31.508Z,97.68
2022-11-28T01:22:32.213Z,97.21
2022-11-28T01:23:33.121Z,95.79
2022-11-28T01:24:33.610Z,94.65
2022-11-28T01:25:34.251Z,94.27
2022-11-28T01:26:34.448Z,93.8
2022-11-28T01:27:34.631Z,93.32
2022-11-28T01:28:35.821Z,93.51
2022-11-28T01:29:35.710Z,93.51
2022-11-28T01:30:36.896Z,93.7
2022-11-28T01:31:37.876Z,93.23
2022-11-28T01:32:37.767Z,93.04
2022-11-28T01:33:38.800Z,93.13
2022-11-28T01:34:39.290Z,93.8
2022-11-28T01:35:39.920Z,92.28
2022-11-28T01:36:40.813Z,90.86
2022-11-28T01:37:40.935Z,89.63
2022-11-28T01:38:42.122Z,88.11
2022-11-28T01:39:42.735Z,87.07
2022-11-28T01:40:43.361Z,86.69
2022-11-28T01:41:44.171Z,86.03
2022-11-28T01:42:44.788Z,85.93
2022-11-28T01:43:45.991Z,85.5
2022-11-28T01:44:46.972Z,85.41
2022-11-28T01:45:46.881Z,85.69
2022-11-28T01:46:47.521Z,85.6
2022-11-28T01:47:47.794Z,85.69
2022-11-28T01:48:47.827Z,85.03
2022-11-28T01:49:47.840Z,84.65
2022-11-28T01:50:49.024Z,85.41
2022-11-28T01:51:48.849Z,86.16
2022-11-28T01:52:49.249Z,86.26
2022-11-28T01:53:49.884Z,90.43
2022-11-28T01:54:50.217Z,95.26
2022-11-28T01:55:50.397Z,97.54
2022-11-28T01:56:51.344Z,99.82
2022-11-28T01:57:51.525Z,99.99
2022-11-28T01:58:52.715Z,99.99
2022-11-28T01:59:53.330Z,99.99
2022-11-28T02:00:54.142Z,99.99
2022-11-28T02:01:54.763Z,99.67
2022-11-28T02:02:55.091Z,98.72
2022-11-28T02:03:55.419Z,98.35
2022-11-28T02:04:56.008Z,98.35
2022-11-28T02:05:56.637Z,97.78
2022-11-28T02:06:56.543Z,97.54
2022-11-28T02:07:57.091Z,94.51
2022-11-28T02:08:57.401Z,92
2022-11-28T02:09:58.327Z,92.85
2022-11-28T02:10:58.223Z,91.85
2022-11-28T02:11:59.302Z,90.43
2022-11-28T02:13:00.313Z,88.73
2022-11-28T02:14:01.224Z,87.4
2022-11-28T02:15:01.123Z,86.07
2022-11-28T02:16:02.192Z,86.07
2022-11-28T02:17:02.429Z,84.36
2022-11-28T02:18:02.610Z,84.17
2022-11-28T02:19:02.924Z,84.36
2022-11-28T02:20:02.931Z,83.51
2022-11-28T02:21:03.421Z,83.98
2022-11-28T02:22:04.205Z,84.36
2022-11-28T02:23:04.321Z,85.69
2022-11-28T02:24:05.529Z,86.16
2022-11-28T02:25:06.145Z,87.21
2022-11-28T02:26:07.051Z,88.25
2022-11-28T02:27:07.607Z,89.11
2022-11-28T02:28:08.091Z,90.24
2022-11-28T02:29:08.413Z,90.53
2022-11-28T02:30:09.612Z,91.19
2022-11-28T02:31:10.298Z,90.72
2022-11-28T02:32:10.746Z,90.62
2022-11-28T02:33:11.642Z,90.53
2022-11-28T02:34:11.676Z,89.96
2022-11-28T02:35:11.978Z,88.82
2022-11-28T02:36:12.173Z,88.06
2022-11-28T02:37:12.787Z,88.06
2022-11-28T02:38:13.185Z,88.44
2022-11-28T02:39:14.395Z,87.4
2022-11-28T02:40:15.323Z,87.02
2022-11-28T02:41:16.237Z,85.5
2022-11-28T02:42:16.376Z,86.07
2022-11-28T02:43:16.587Z,85.78
2022-11-28T02:44:17.195Z,85.13
2022-11-28T02:45:17.803Z,84.17
2022-11-28T02:46:19.064Z,83.89
2022-11-28T02:47:19.722Z,84.94
2022-11-28T02:48:20.037Z,84.94
2022-11-28T02:49:21.090Z,84.94
2022-11-28T02:50:21.367Z,85.78
2022-11-28T02:51:21.858Z,86.45
2022-11-28T02:52:22.370Z,88.35
2022-11-28T02:53:23.408Z,89.67
2022-11-28T02:54:23.314Z,90.34
2022-11-28T02:55:23.684Z,89.67
2022-11-28T02:56:24.880Z,89.39
2022-11-28T02:57:25.215Z,87.12
2022-11-28T02:58:26.425Z,87.12
2022-11-28T02:59:26.915Z,89.67
2022-11-28T03:00:27.165Z,91.57
2022-11-28T03:01:27.644Z,93.37
2022-11-28T03:02:28.465Z,93.75
2022-11-28T03:03:28.523Z,93.08
2022-11-28T03:04:29.280Z,92.52
2022-11-28T03:05:29.412Z,92.23
2022-11-28T03:06:29.616Z,91.57
2022-11-28T03:07:29.921Z,90.05
2022-11-28T03:08:29.989Z,87.21
2022-11-28T03:09:30.041Z,86.35
2022-11-28T03:10:31.238Z,85.69
2022-11-28T03:11:31.424Z,84.74
2022-11-28T03:12:32.242Z,83.61
2022-11-28T03:13:32.548Z,83.13
2022-11-28T03:14:33.034Z,83.04
2022-11-28T03:15:33.399Z,82.56
2022-11-28T03:16:34.173Z,81.71
2022-11-28T03:17:34.803Z,81.14
2022-11-28T03:18:35.437Z,81.71
2022-11-28T03:19:36.176Z,81.14
2022-11-28T03:20:36.489Z,81.33
2022-11-28T03:21:37.398Z,81.47
2022-11-28T03:22:37.665Z,81.24
2022-11-28T03:23:38.358Z,81.81
2022-11-28T03:24:38.995Z,82.6
2022-11-28T03:25:39.115Z,83.04
2022-11-28T03:26:40.026Z,83.94
2022-11-28T03:27:40.935Z,82.18
2022-11-28T03:28:47.507Z,82.47
2022-11-28T03:29:41.126Z,82.09
2022-11-28T03:30:41.744Z,82.47
2022-11-28T03:31:42.566Z,83.23
2022-11-28T03:32:43.112Z,83.8
2022-11-28T03:33:43.752Z,85.22
2022-11-28T03:34:44.586Z,86.45
2022-11-28T03:35:44.777Z,88.06
2022-11-28T03:36:44.967Z,89.2
2022-11-28T03:37:45.177Z,89.58
2022-11-28T03:38:45.598Z,89.01
2022-11-28T03:39:46.091Z,88.92
2022-11-28T03:40:46.280Z,88.73
2022-11-28T03:41:46.466Z,88.82
2022-11-28T03:42:47.277Z,87.21
2022-11-28T03:43:47.867Z,85.97
2022-11-28T03:44:49.177Z,85.5
2022-11-28T03:45:49.371Z,85.78
2022-11-28T03:46:49.621Z,86.55
2022-11-28T03:47:50.590Z,87.3
2022-11-28T03:48:51.236Z,87.49
2022-11-28T03:49:51.903Z,87.77
2022-11-28T03:50:52.502Z,87.68
2022-11-28T03:51:52.984Z,88.35
2022-11-28T03:52:53.521Z,89.01
2022-11-28T03:53:54.227Z,88.54
2022-11-28T03:54:54.861Z,87.87
2022-11-28T03:55:55.620Z,87.02
2022-11-28T03:56:56.075Z,87.68
2022-11-28T03:57:56.705Z,87.02
2022-11-28T03:58:57.960Z,86.45
2022-11-28T03:59:58.448Z,86.83
2022-11-28T04:00:58.876Z,87.3
2022-11-28T04:01:59.493Z,87.49
2022-11-28T04:03:00.492Z,87.3
2022-11-28T04:04:00.125Z,87.3
2022-11-28T04:05:00.881Z,87.77
2022-11-28T04:06:00.897Z,88.16
2022-11-28T04:07:01.807Z,88.82
2022-11-28T04:08:02.290Z,89.39
2022-11-28T04:09:03.075Z,89.58
2022-11-28T04:10:03.413Z,90.43
2022-11-28T04:11:03.752Z,90.86
2022-11-28T04:12:04.682Z,91.71
2022-11-28T04:13:05.198Z,92.52
2022-11-28T04:14:05.832Z,91.95
2022-11-28T04:15:06.024Z,92.94
2022-11-28T04:16:06.285Z,92.94
2022-11-28T04:17:06.777Z,93.23
2022-11-28T04:18:07.823Z,92.94
2022-11-28T04:19:07.723Z,90.95
2022-11-28T04:20:08.773Z,88.77
2022-11-28T04:21:09.092Z,86.59
2022-11-28T04:22:09.002Z,85.55
2022-11-28T04:23:09.824Z,85.74
2022-11-28T04:24:10.243Z,87.45
2022-11-28T04:25:11.448Z,88.87
2022-11-28T04:26:11.670Z,89.62
2022-11-28T04:27:12.578Z,90.38
2022-11-28T04:28:13.192Z,90.62
2022-11-28T04:29:13.380Z,91.47
2022-11-28T04:30:14.284Z,91.57
2022-11-28T04:31:15.331Z,91.47
2022-11-28T04:32:16.186Z,91.38
2022-11-28T04:33:16.388Z,91.38
2022-11-28T04:34:16.702Z,91.47
2022-11-28T04:35:17.445Z,91.76
2022-11-28T04:36:17.503Z,92.61
2022-11-28T04:37:18.692Z,92.33
2022-11-28T04:38:19.177Z,93.08
2022-11-28T04:39:19.883Z,93.08
2022-11-28T04:40:20.791Z,93.37
2022-11-28T04:41:20.973Z,93.27
2022-11-28T04:42:21.615Z,94.79
2022-11-28T04:43:22.449Z,96.59
2022-11-28T04:44:22.948Z,97.64
2022-11-28T04:45:23.568Z,98.3
2022-11-28T04:46:24.784Z,99.15
2022-11-28T04:47:25.819Z,99.99
2022-11-28T04:48:29.915Z,99.91
2022-11-28T04:49:26.744Z,99.99
2022-11-28T04:50:27.498Z,99.53
2022-11-28T04:51:28.240Z,99.06
2022-11-28T04:52:28.427Z,99.06
2022-11-28T04:53:29.540Z,99.72
2022-11-28T04:54:29.954Z,99.99
2022-11-28T04:55:30.049Z,99.99
2022-11-28T04:56:31.241Z,99.91
2022-11-28T04:57:32.160Z,99.99
2022-11-28T04:58:33.132Z,99.99
2022-11-28T04:59:33.328Z,99.99
2022-11-28T05:00:34.298Z,99.72
2022-11-28T05:01:35.646Z,99.99
2022-11-28T05:02:35.722Z,99.99
2022-11-28T05:03:41.263Z,99.99
2022-11-28T05:04:37.481Z,99.99
2022-11-28T05:05:37.585Z,99.99
2022-11-28T05:06:37.881Z,99.99
2022-11-28T05:07:38.622Z,99.99
2022-11-28T05:08:39.406Z,99.99
2022-11-28T05:09:40.113Z,99.99
2022-11-28T05:10:40.009Z,99.99
2022-11-28T05:11:40.899Z,99.99
2022-11-28T05:12:41.810Z,99.99
2022-11-28T05:13:42.895Z,99.99
2022-11-28T05:14:43.580Z,99.99
2022-11-28T05:15:43.613Z,99.99
2022-11-28T05:16:44.057Z,99.99
2022-11-28T05:17:47.767Z,99.99
2022-11-28T05:18:45.712Z,99.99
2022-11-28T05:19:45.919Z,99.99
2022-11-28T05:20:46.369Z,99.99
2022-11-28T05:21:46.690Z,99.99
2022-11-28T05:22:47.615Z,99.99
2022-11-28T05:23:47.708Z,99.99
2022-11-28T05:24:47.861Z,99.99
2022-11-28T05:25:48.487Z,99.99
2022-11-28T05:26:49.396Z,99.99
2022-11-28T05:27:50.316Z,99.99
2022-11-28T05:28:50.365Z,99.99
2022-11-28T05:29:57.494Z,99.99
2022-11-28T05:30:52.410Z,99.99
2022-11-28T05:31:52.783Z,99.99
2022-11-28T05:32:53.011Z,99.99
2022-11-28T05:33:53.934Z,99.99
2022-11-28T05:34:54.836Z,99.99
2022-11-28T05:35:54.846Z,99.99
2022-11-28T05:36:54.863Z,99.99
2022-11-28T05:37:55.480Z,99.99
2022-11-28T05:38:55.578Z,99.99
2022-11-28T05:39:55.882Z,99.99
2022-11-28T05:40:57.085Z,99.99
2022-11-28T05:41:57.799Z,99.99
2022-11-28T05:42:58.285Z,99.99
2022-11-28T05:43:58.840Z,99.99
2022-11-28T05:44:59.026Z,99.99
2022-11-28T05:45:59.870Z,99.99
2022-11-28T05:47:00.523Z,99.99
2022-11-28T05:48:00.723Z,99.99
2022-11-28T05:49:01.315Z,99.99
2022-11-28T05:50:01.512Z,99.99
2022-11-28T05:51:02.304Z,99.99
2022-11-28T05:52:02.605Z,99.99
2022-11-28T05:53:03.094Z,99.99
2022-11-28T05:54:03.196Z,99.99
2022-11-28T05:55:03.325Z,99.99
2022-11-28T05:56:04.511Z,99.99
2022-11-28T05:57:04.848Z,99.99
2022-11-28T05:58:05.761Z,99.99
2022-11-28T05:59:05.693Z,99.99
2022-11-28T06:00:06.599Z,99.99
2022-11-28T06:01:06.919Z,99.99
2022-11-28T06:02:08.150Z,99.99
2022-11-28T06:03:08.733Z,99.99
2022-11-28T06:04:09.779Z,99.99
2022-11-28T06:05:43.063Z,99.99
2022-11-28T06:06:09.898Z,99.99
2022-11-28T06:07:09.933Z,99.99
2022-11-28T06:08:10.686Z,99.99
2022-11-28T06:09:11.877Z,99.99
2022-11-28T06:10:12.343Z,99.99
2022-11-28T06:11:13.236Z,99.99
2022-11-28T06:12:14.131Z,99.99
2022-11-28T06:13:15.339Z,99.99
2022-11-28T06:14:16.169Z,99.99
2022-11-28T06:15:16.756Z,99.99
2022-11-28T06:16:17.132Z,99.99
2022-11-28T06:17:17.125Z,99.99
2022-11-28T06:18:17.319Z,99.99
2022-11-28T06:19:18.145Z,99.99
2022-11-28T06:20:18.450Z,99.99
2022-11-28T06:21:19.481Z,99.99
2022-11-28T06:22:19.765Z,99.99
2022-11-28T06:23:20.378Z,99.99
2022-11-28T06:24:21.377Z,99.99
2022-11-28T06:25:21.785Z,99.99
2022-11-28T06:26:22.406Z,99.99
2022-11-28T06:27:23.357Z,99.99
2022-11-28T06:28:23.968Z,99.99
2022-11-28T06:29:24.160Z,99.99
2022-11-28T06:30:25.101Z,99.99
2022-11-28T06:31:25.425Z,99.99
2022-11-28T06:32:27.473Z,98.49
2022-11-28T06:33:25.964Z,97.83
2022-11-28T06:34:26.209Z,96.69
2022-11-28T06:35:26.395Z,96.59
2022-11-28T06:36:27.014Z,97.26
2022-11-28T06:37:27.019Z,96.78
2022-11-28T06:38:26.932Z,96.59
2022-11-28T06:39:27.252Z,97.35
2022-11-28T06:40:27.957Z,97.92
2022-11-28T06:41:28.452Z,98.68
2022-11-28T06:42:28.495Z,99.99
2022-11-28T06:43:29.712Z,99.34
2022-11-28T06:44:29.812Z,99.99
2022-11-28T06:45:30.493Z,99.99
2022-11-28T06:46:30.833Z,99.99
2022-11-28T06:47:30.847Z,99.99
2022-11-28T06:48:32.053Z,99.99
2022-11-28T06:49:33.075Z,99.99
2022-11-28T06:50:33.425Z,99.99
2022-11-28T06:51:34.930Z,99.99
2022-11-28T06:52:35.506Z,99.99
2022-11-28T06:53:36.963Z,99.99
2022-11-28T06:54:36.797Z,99.99
2022-11-28T06:55:37.204Z,99.99
2022-11-28T06:56:38.540Z,99.99
2022-11-28T06:57:38.576Z,99.99
2022-11-28T06:58:38.820Z,99.99
2022-11-28T06:59:39.820Z,99.99
2022-11-28T07:00:41.175Z,99.99
2022-11-28T07:01:40.976Z,99.34
2022-11-28T07:02:41.555Z,97.64
2022-11-28T07:03:41.434Z,97.83
2022-11-28T07:04:42.074Z,97.45
2022-11-28T07:05:42.569Z,96.22
2022-11-28T07:06:42.898Z,96.78
2022-11-28T07:07:58.881Z,94.32
2022-11-28T07:08:43.491Z,93.46
2022-11-28T07:09:44.676Z,94.04
2022-11-28T07:10:44.949Z,93.65
2022-11-28T07:11:45.576Z,92.8
2022-11-28T07:12:46.196Z,91.47
2022-11-28T07:13:47.197Z,90.53
2022-11-28T07:14:47.347Z,89.67
2022-11-28T07:15:47.961Z,89.48
2022-11-28T07:16:48.831Z,88.87
2022-11-28T07:17:49.100Z,88.01
2022-11-28T07:18:50.013Z,87.63
2022-11-28T07:19:55.195Z,87.45
2022-11-28T07:20:50.576Z,86.02
2022-11-28T07:21:51.903Z,85.83
2022-11-28T07:22:52.499Z,84.22
2022-11-28T07:23:52.408Z,84.12
2022-11-28T07:24:53.135Z,83.74
2022-11-28T07:25:53.546Z,83.74
2022-11-28T07:26:54.177Z,83.08
2022-11-28T07:27:54.428Z,83.08
2022-11-28T07:28:54.635Z,82.65
2022-11-28T07:29:55.226Z,82.84
2022-11-28T07:30:55.848Z,82.93
2022-11-28T07:31:56.856Z,83.22
2022-11-28T07:32:57.772Z,82.93
2022-11-28T07:33:58.708Z,83.31
2022-11-28T07:34:58.956Z,83.12
2022-11-28T07:35:59.866Z,82.93
2022-11-28T07:37:00.192Z,82.27
2022-11-28T07:38:00.180Z,82.36
2022-11-28T07:39:00.383Z,83.03
2022-11-28T07:40:00.866Z,82.55
2022-11-28T07:41:01.574Z,81.98
2022-11-28T07:42:01.769Z,83.16
2022-11-28T07:43:02.807Z,82.65
2022-11-28T07:44:03.297Z,81.98
2022-11-28T07:45:04.008Z,81.93
2022-11-28T07:46:06.741Z,81.93
2022-11-28T07:47:05.414Z,82.78
2022-11-28T07:48:05.732Z,83.36
2022-11-28T07:49:05.946Z,85.72
2022-11-28T07:50:06.191Z,87.62
2022-11-28T07:51:06.386Z,89.05
2022-11-28T07:52:07.023Z,90.38
2022-11-28T07:53:12.341Z,91.52
2022-11-28T07:54:07.956Z,92.42
2022-11-28T07:55:08.737Z,92.52
2022-11-28T07:56:09.270Z,92.37
2022-11-28T07:57:18.387Z,93.08
2022-11-28T07:58:10.314Z,94.32
2022-11-28T07:59:10.780Z,95.07
2022-11-28T08:00:11.421Z,95.93
2022-11-28T08:01:12.333Z,96.12
2022-11-28T08:02:13.120Z,95.93
2022-11-28T08:03:13.428Z,95.65
2022-11-28T08:04:14.446Z,95.93
2022-11-28T08:05:15.522Z,96.69
2022-11-28T08:06:15.563Z,97.17
2022-11-28T08:07:16.576Z,97.64
2022-11-28T08:08:16.700Z,98.92
2022-11-28T08:09:17.904Z,99.58
2022-11-28T08:10:18.113Z,99.99
2022-11-28T08:11:18.696Z,99.99
2022-11-28T08:12:19.316Z,99.99
2022-11-28T08:13:19.979Z,99.99
2022-11-28T08:14:20.192Z,99.99
2022-11-28T08:15:21.197Z,99.99
2022-11-28T08:16:21.817Z,99.99
2022-11-28T08:17:22.248Z,99.99
2022-11-28T08:18:23.161Z,99.99
2022-11-28T08:19:32.074Z,99.99
2022-11-28T08:20:24.677Z,99.99
2022-11-28T08:21:25.388Z,99.99
2022-11-28T08:22:25.602Z,99.99
2022-11-28T08:23:26.112Z,99.99
2022-11-28T08:24:27.035Z,99.99
2022-11-28T08:25:27.485Z,99.99
2022-11-28T08:26:34.207Z,99.99
2022-11-28T08:27:28.534Z,99.99
2022-11-28T08:28:29.743Z,99.99
2022-11-28T08:29:30.457Z,99.99
2022-11-28T08:30:31.717Z,99.99
2022-11-28T08:31:31.805Z,99.99
2022-11-28T08:32:32.715Z,99.99
2022-11-28T08:33:33.626Z,99.99
2022-11-28T08:34:33.841Z,99.99
2022-11-28T08:35:34.843Z,99.99
2022-11-28T08:36:35.354Z,99.99
2022-11-28T08:37:35.652Z,99.99
2022-11-28T08:38:35.762Z,99.99
2022-11-28T08:39:35.740Z,99.99
2022-11-28T08:40:36.442Z,99.99
2022-11-28T08:41:36.703Z,99.99
2022-11-28T08:42:37.632Z,99.99
2022-11-28T08:43:38.846Z,99.99
2022-11-28T08:44:39.338Z,99.99
2022-11-28T08:45:40.451Z,99.99
2022-11-28T08:46:40.894Z,99.99
2022-11-28T08:47:41.115Z,99.99
2022-11-28T08:48:41.745Z,99.99
2022-11-28T08:49:43.147Z,99.99
2022-11-28T08:50:46.726Z,99.99
2022-11-28T08:51:43.826Z,99.99
2022-11-28T08:52:45.079Z,99.99
2022-11-28T08:53:48.729Z,99.99
2022-11-28T08:54:45.860Z,99.99
2022-11-28T08:55:47.522Z,99.99
2022-11-28T08:56:47.456Z,99.99
2022-11-28T08:57:47.671Z,99.99
2022-11-28T08:58:47.874Z,99.99
2022-11-28T08:59:48.801Z,99.99
2022-11-28T09:00:48.758Z,99.99
2022-11-28T09:01:50.243Z,99.99
2022-11-28T09:02:50.289Z,99.99
2022-11-28T09:03:51.641Z,99.99
2022-11-28T09:04:51.907Z,99.99
2022-11-28T09:05:52.635Z,99.99
2022-11-28T09:06:52.833Z,99.99
2022-11-28T09:07:53.592Z,99.99
2022-11-28T09:08:53.924Z,99.99
2022-11-28T09:09:55.034Z,99.99
2022-11-28T09:10:54.955Z,99.99
2022-11-28T09:11:55.471Z,99.99
2022-11-28T09:12:55.964Z,99.99
2022-11-28T09:13:56.884Z,99.99
2022-11-28T09:14:56.549Z,99.99
2022-11-28T09:15:59.006Z,99.99
2022-11-28T09:16:58.518Z,99.99
2022-11-28T09:17:58.340Z,99.99
2022-11-28T09:18:58.240Z,99.99
2022-11-28T09:19:59.357Z,99.99
2022-11-28T09:20:59.868Z,99.99
2022-11-28T09:22:03.371Z,99.99
2022-11-28T09:23:01.357Z,99.99
2022-11-28T09:24:01.561Z,99.99
2022-11-28T09:25:02.478Z,99.99
2022-11-28T09:26:02.845Z,99.99
2022-11-28T09:27:02.798Z,99.99
2022-11-28T09:28:03.302Z,99.99
2022-11-28T09:29:03.592Z,99.99
2022-11-28T09:30:03.513Z,99.99
2022-11-28T09:31:04.466Z,99.99
2022-11-28T09:32:05.357Z,99.99
2022-11-28T09:33:06.309Z,99.99
2022-11-28T09:34:06.549Z,99.99
2022-11-28T09:35:06.845Z,99.99
2022-11-28T09:36:07.953Z,99.99
2022-11-28T09:37:10.586Z,99.16
2022-11-28T09:38:09.135Z,99.3
2022-11-28T09:39:09.369Z,99.02
2022-11-28T09:40:19.579Z,99.02
2022-11-28T09:41:10.077Z,99.68
2022-11-28T09:42:10.317Z,99.99
2022-11-28T09:43:10.535Z,99.99
2022-11-28T09:44:11.176Z,99.99
2022-11-28T09:45:11.800Z,99.99
2022-11-28T09:46:12.359Z,99.21
2022-11-28T09:47:13.035Z,99.58
2022-11-28T09:48:13.946Z,99.99
2022-11-28T09:49:13.837Z,99.99
2022-11-28T09:50:14.334Z,99.99
2022-11-28T09:51:14.858Z,99.99
2022-11-28T09:52:15.177Z,99.77
2022-11-28T09:53:16.450Z,98.07
2022-11-28T09:54:16.988Z,98.07
2022-11-28T09:55:16.609Z,98.35
2022-11-28T09:56:17.229Z,98.54
2022-11-28T09:57:17.477Z,98.64
2022-11-28T09:58:17.388Z,98.07
2022-11-28T09:59:18.278Z,98.73
2022-11-28T10:00:18.652Z,98.83
2022-11-28T10:01:19.372Z,99.97
2022-11-28T10:02:20.305Z,99.68
2022-11-28T10:03:20.726Z,99.21
2022-11-28T10:04:21.629Z,98.83
2022-11-28T10:05:21.724Z,98.54
2022-11-28T10:06:22.175Z,98.73
2022-11-28T10:07:22.889Z,98.07
2022-11-28T10:08:23.158Z,98.16
2022-11-28T10:09:23.398Z,97.97
2022-11-28T10:10:24.293Z,97.97
2022-11-28T10:11:25.342Z,97.41
2022-11-28T10:12:26.554Z,97.31
2022-11-28T10:13:32.612Z,97.12
2022-11-28T10:14:27.211Z,96.74
2022-11-28T10:15:28.420Z,96.17
2022-11-28T10:16:29.625Z,94.27
2022-11-28T10:17:29.937Z,93.89
2022-11-28T10:18:30.438Z,92.94
2022-11-28T10:20:02.810Z,93.41
2022-11-28T10:20:31.568Z,93.23
2022-11-28T10:21:32.252Z,92.9
2022-11-28T10:22:32.919Z,93.27
2022-11-28T10:23:34.143Z,94.13
2022-11-28T10:24:34.644Z,94.51
2022-11-28T10:25:35.759Z,94.6
2022-11-28T10:26:36.128Z,94.79
2022-11-28T10:27:36.769Z,95.27
2022-11-28T10:28:37.991Z,95.75
2022-11-28T10:29:38.208Z,96.69
2022-11-28T10:30:38.309Z,97.45
2022-11-28T10:31:38.383Z,97.74
2022-11-28T10:32:38.990Z,98.21
2022-11-28T10:33:39.477Z,98.21
2022-11-28T10:34:40.419Z,99.07
2022-11-28T10:35:41.333Z,99.64
2022-11-28T10:36:42.388Z,99.35
2022-11-28T10:37:42.588Z,99.83
2022-11-28T10:38:43.536Z,99.54
2022-11-28T10:39:44.145Z,99.78
2022-11-28T10:40:44.860Z,99.99
2022-11-28T10:41:44.772Z,99.99
2022-11-28T10:42:45.721Z,99.99
2022-11-28T10:43:46.626Z,99.3
2022-11-28T10:44:46.816Z,99.11
2022-11-28T10:45:47.537Z,99.3
2022-11-28T10:46:48.014Z,98.93
2022-11-28T10:47:48.209Z,99.11
2022-11-28T10:48:48.586Z,98.93
2022-11-28T10:49:49.147Z,99.11
2022-11-28T10:50:49.363Z,99.3
2022-11-28T10:51:50.018Z,99.21
2022-11-28T10:52:50.659Z,99.3
2022-11-28T10:53:50.872Z,99.21
2022-11-28T10:54:52.092Z,99.21
2022-11-28T10:55:52.280Z,99.02
2022-11-28T10:56:53.039Z,99.99
2022-11-28T10:57:54.027Z,99.99
2022-11-28T10:58:54.952Z,99.99
2022-11-28T10:59:54.853Z,99.99
2022-11-28T11:00:56.126Z,99.99
2022-11-28T11:01:56.150Z,99.99
2022-11-28T11:02:56.933Z,99.99
2022-11-28T11:03:57.285Z,99.99
2022-11-28T11:04:57.974Z,99.99
2022-11-28T11:05:58.696Z,99.99
2022-11-28T11:07:23.959Z,99.99
2022-11-28T11:08:15.889Z,99.99
2022-11-28T11:09:16.379Z,99.99
2022-11-28T11:10:17.008Z,99.99
2022-11-28T11:11:17.976Z,99.99
2022-11-28T11:12:18.902Z,99.93
2022-11-28T11:13:18.827Z,98.97
2022-11-28T11:14:19.321Z,98.97
2022-11-28T11:15:19.243Z,98.6
2022-11-28T11:16:20.137Z,98.79
2022-11-28T11:17:21.188Z,99.99
2022-11-28T11:18:22.159Z,99.45
2022-11-28T11:19:22.365Z,98.93
2022-11-28T11:20:23.013Z,98.83
2022-11-28T11:21:23.201Z,99.02
2022-11-28T11:22:23.553Z,98.36
2022-11-28T11:23:23.815Z,99.02
2022-11-28T11:24:24.853Z,98.74
2022-11-28T11:25:25.062Z,99.31
2022-11-28T11:26:25.300Z,99.6
2022-11-28T11:27:25.629Z,99.99
2022-11-28T11:28:26.568Z,99.98
2022-11-28T11:29:26.764Z,99.69
2022-11-28T11:30:28.174Z,99.99
2022-11-28T11:31:29.050Z,99.99
2022-11-28T11:32:29.116Z,99.99
2022-11-28T11:33:29.334Z,99.99
2022-11-28T11:34:29.657Z,99.99
2022-11-28T11:35:29.857Z,99.99
2022-11-28T11:36:30.068Z,99.99
2022-11-28T11:37:30.340Z,99.5
2022-11-28T11:38:36.294Z,99.5
2022-11-28T11:39:31.122Z,99.99
2022-11-28T11:40:31.646Z,99.5
2022-11-28T11:41:32.297Z,99.41
2022-11-28T11:42:32.919Z,98.74
2022-11-28T11:43:34.218Z,97.88
2022-11-28T11:44:34.765Z,97.41
2022-11-28T11:45:34.797Z,97.13
2022-11-28T11:46:35.279Z,97.79
2022-11-28T11:47:35.452Z,98.17
2022-11-28T11:48:36.669Z,98.17
2022-11-28T11:49:37.622Z,98.93
2022-11-28T11:50:37.815Z,98.83
2022-11-28T11:51:43.182Z,97.5
2022-11-28T11:52:39.109Z,97.13
2022-11-28T11:53:39.055Z,96.36
2022-11-28T11:54:40.288Z,96.94
2022-11-28T11:55:40.888Z,96.55
2022-11-28T11:56:41.508Z,97.69
2022-11-28T11:57:48.421Z,98.83
2022-11-28T11:58:49.201Z,98.83
2022-11-28T11:59:50.704Z,99.17
2022-11-28T12:00:51.197Z,99.84
2022-11-28T12:01:51.407Z,99.99
2022-11-28T12:02:52.302Z,99.99
2022-11-28T12:03:52.665Z,99.74
2022-11-28T12:04:58.037Z,98.6
2022-11-28T12:06:18.584Z,97.27
2022-11-28T12:06:54.608Z,97.17
2022-11-28T12:07:55.854Z,96.36
2022-11-28T12:08:56.077Z,96.12
2022-11-28T12:10:04.260Z,96.17
2022-11-28T12:10:57.256Z,96.26
2022-11-28T12:11:58.163Z,96.08
2022-11-28T12:12:58.813Z,97.13
2022-11-28T12:13:59.684Z,96.65
2022-11-28T12:15:00.178Z,96.55
2022-11-28T12:16:00.854Z,96.46
2022-11-28T12:17:07.524Z,97.03
2022-11-28T12:18:40.382Z,96.26
2022-11-28T12:19:41.417Z,95.32
2022-11-28T12:20:41.887Z,95.22
2022-11-28T12:21:42.378Z,95.03
2022-11-28T12:22:42.581Z,94.65
2022-11-28T12:23:43.075Z,94.18
2022-11-28T12:24:43.646Z,94.27
2022-11-28T12:25:44.759Z,94.46
2022-11-28T12:26:45.097Z,93.6
2022-11-28T12:27:44.996Z,92.65
2022-11-28T12:28:45.707Z,92.18
2022-11-28T12:29:45.983Z,92.56
2022-11-28T12:30:50.288Z,91.75
2022-11-28T12:31:47.554Z,92.36
2022-11-28T12:32:47.750Z,92.7
2022-11-28T12:33:48.270Z,92.8
2022-11-28T12:34:48.486Z,92.41
2022-11-28T12:35:49.449Z,91.94
2022-11-28T12:36:49.618Z,93.08
2022-11-28T12:38:15.405Z,94.03
2022-11-28T12:39:03.939Z,94.79
2022-11-28T12:40:04.049Z,95.65
2022-11-28T12:41:04.350Z,96.79
2022-11-28T12:42:05.574Z,97.64
2022-11-28T12:43:06.151Z,98.31
2022-11-28T12:44:06.408Z,99.07
2022-11-28T12:45:07.120Z,98.69
2022-11-28T12:46:07.587Z,98.79
2022-11-28T12:47:08.714Z,99.07
2022-11-28T12:48:08.664Z,99.64
2022-11-28T12:49:09.996Z,99.74
2022-11-28T12:50:10.276Z,99.93
2022-11-28T12:51:11.305Z,99.93
2022-11-28T12:52:11.451Z,99.84
2022-11-28T12:53:11.771Z,99.84
2022-11-28T12:54:12.753Z,99.99
2022-11-28T12:55:12.981Z,99.99
2022-11-28T12:56:13.618Z,99.99
2022-11-28T12:57:14.213Z,98.88
2022-11-28T12:58:14.422Z,97.98
2022-11-28T12:59:14.740Z,97.13
2022-11-28T13:00:15.168Z,96.94
2022-11-28T13:01:15.076Z,96.08
2022-11-28T13:02:16.541Z,94.27